createdAt,value
2022-09-17T00:02:44.865Z,12.10
2022-09-17T00:07:46.980Z,12.10
2022-09-17T00:12:49.097Z,12.10
2022-09-17T00:17:55.496Z,12.10
2022-09-17T00:22:57.352Z,12.00
2022-09-17T00:27:59.245Z,12.00
2022-09-17T00:33:01.090Z,11.90
2022-09-17T00:38:03.031Z,11.90
2022-09-17T00:43:04.903Z,11.80
2022-09-17T00:48:07.125Z,11.80
2022-09-17T00:53:21.379Z,11.80
2022-09-17T00:58:24.382Z,11.70
2022-09-17T01:03:26.664Z,11.70
2022-09-17T01:09:13.422Z,11.70
2022-09-17T01:14:33.773Z,11.70
2022-09-17T01:20:00.449Z,11.70
2022-09-17T01:25:41.267Z,11.70
2022-09-17T01:30:52.125Z,11.70
2022-09-17T01:36:06.647Z,11.60
2022-09-17T01:41:14.684Z,11.60
2022-09-17T01:46:24.873Z,11.60
2022-09-17T01:51:30.112Z,11.60
2022-09-17T01:56:48.265Z,11.50
2022-09-17T02:01:53.372Z,11.40
2022-09-17T02:07:06.085Z,11.30
2022-09-17T02:12:10.965Z,11.20
2022-09-17T02:17:20.864Z,11.10
2022-09-17T02:22:56.823Z,11.10
2022-09-17T02:28:03.563Z,11.00
2022-09-17T02:33:09.756Z,10.90
2022-09-17T02:38:11.582Z,10.90
2022-09-17T02:43:28.940Z,10.90
2022-09-17T02:48:42.619Z,11.00
2022-09-17T02:53:54.023Z,11.00
2022-09-17T02:59:20.461Z,11.00
2022-09-17T03:04:23.672Z,11.00
2022-09-17T03:09:25.944Z,11.10
2022-09-17T03:14:28.995Z,11.10
2022-09-17T03:19:30.809Z,11.20
2022-09-17T03:24:32.598Z,11.20
2022-09-17T03:29:34.423Z,11.20
2022-09-17T03:34:36.330Z,11.20
2022-09-17T03:39:38.474Z,11.20
2022-09-17T03:44:44.730Z,11.30
2022-09-17T03:49:47.233Z,11.30
2022-09-17T03:54:49.295Z,11.30
2022-09-17T03:59:51.312Z,11.30
2022-09-17T04:04:54.131Z,11.40
2022-09-17T04:09:56.009Z,11.40
2022-09-17T04:14:57.966Z,11.40
2022-09-17T04:19:59.927Z,11.40
2022-09-17T04:25:01.817Z,11.40
2022-09-17T04:30:03.888Z,11.40
2022-09-17T04:35:06.290Z,11.40
2022-09-17T04:40:09.103Z,11.40
2022-09-17T04:45:10.952Z,11.40
2022-09-17T04:50:12.968Z,11.40
2022-09-17T04:55:15.445Z,11.40
2022-09-17T05:00:18.466Z,11.50
2022-09-17T05:05:21.431Z,11.50
2022-09-17T05:10:23.428Z,11.50
2022-09-17T05:15:26.470Z,11.50
2022-09-17T05:20:28.301Z,11.50
2022-09-17T05:25:30.965Z,11.50
2022-09-17T05:30:33.182Z,11.60
2022-09-17T05:35:37.982Z,11.60
2022-09-17T05:40:39.846Z,11.60
2022-09-17T05:45:41.808Z,11.70
2022-09-17T05:50:43.672Z,11.80
2022-09-17T05:55:45.491Z,11.90
2022-09-17T06:07:40.591Z,12.00
2022-09-17T06:12:42.467Z,12.10
2022-09-17T06:17:44.332Z,12.20
2022-09-17T06:22:46.258Z,12.30
2022-09-17T06:27:48.054Z,12.30
2022-09-17T06:32:50.125Z,12.20
2022-09-17T06:37:51.983Z,12.30
2022-09-17T06:42:59.234Z,12.40
2022-09-17T06:48:05.137Z,12.40
2022-09-17T06:53:06.917Z,12.40
2022-09-17T06:58:08.730Z,12.40
2022-09-17T07:03:10.674Z,12.40
2022-09-17T07:08:12.727Z,12.50
2022-09-17T07:13:14.642Z,12.50
2022-09-17T07:18:16.612Z,12.60
2022-09-17T07:23:18.380Z,12.80
2022-09-17T07:28:20.945Z,13.00
2022-09-17T07:33:26.387Z,13.10
2022-09-17T07:38:29.310Z,13.10
2022-09-17T07:43:33.265Z,13.00
2022-09-17T07:48:35.109Z,13.00
2022-09-17T07:53:36.909Z,12.90
2022-09-17T07:58:39.005Z,12.90
2022-09-17T08:03:40.881Z,12.90
2022-09-17T08:08:42.675Z,13.00
2022-09-17T08:13:47.787Z,13.00
2022-09-17T08:18:55.060Z,13.00
2022-09-17T08:23:57.579Z,13.10
2022-09-17T08:28:59.560Z,13.10
2022-09-17T08:34:01.494Z,13.20
2022-09-17T08:39:03.682Z,13.20
2022-09-17T08:44:08.534Z,13.30
2022-09-17T08:49:29.458Z,13.30
2022-09-17T08:54:38.958Z,13.30
2022-09-17T08:59:55.377Z,13.30
2022-09-17T09:05:16.812Z,13.30
2022-09-17T09:10:23.774Z,13.30
2022-09-17T09:15:46.415Z,13.30
2022-09-17T09:20:50.213Z,13.40
2022-09-17T09:26:00.451Z,13.40
2022-09-17T09:31:35.886Z,13.50
2022-09-17T09:36:38.609Z,13.50
2022-09-17T09:41:48.897Z,13.60
2022-09-17T09:47:24.623Z,13.60
2022-09-17T09:53:05.271Z,13.50
2022-09-17T09:58:36.976Z,13.50
2022-09-17T10:03:41.146Z,13.50
2022-09-17T10:09:02.841Z,13.50
2022-09-17T10:14:26.106Z,13.60
2022-09-17T10:19:27.883Z,13.70
2022-09-17T10:24:34.700Z,13.70
2022-09-17T10:29:37.001Z,13.80
2022-09-17T10:34:38.886Z,13.90
2022-09-17T10:39:45.062Z,14.00
2022-09-17T10:44:52.448Z,14.10
2022-09-17T10:49:57.667Z,14.20
2022-09-17T10:55:20.698Z,14.20
2022-09-17T11:00:23.481Z,14.30
2022-09-17T11:05:38.557Z,14.40
2022-09-17T11:10:51.230Z,14.60
2022-09-17T11:16:14.426Z,14.60
2022-09-17T11:21:31.288Z,14.60
2022-09-17T11:26:48.845Z,14.80
2022-09-17T11:32:28.563Z,14.70
2022-09-17T11:37:38.178Z,14.60
2022-09-17T11:42:47.769Z,14.40
2022-09-17T11:47:53.485Z,14.40
2022-09-17T11:53:26.438Z,14.40
2022-09-17T11:58:43.101Z,14.40
2022-09-17T12:03:59.308Z,14.50
2022-09-17T12:09:16.003Z,14.60
2022-09-17T12:14:29.178Z,14.70
2022-09-17T12:19:41.997Z,14.90
2022-09-17T12:24:43.847Z,14.90
2022-09-17T12:30:04.617Z,14.80
2022-09-17T12:36:04.636Z,14.60
2022-09-17T12:41:24.053Z,14.40
2022-09-17T12:46:47.064Z,14.10
2022-09-17T12:52:00.724Z,14.00
2022-09-17T12:57:05.522Z,14.00
2022-09-17T13:02:26.528Z,14.00
2022-09-17T13:07:57.912Z,13.90
2022-09-17T13:13:27.076Z,13.80
2022-09-17T13:18:36.146Z,13.80
2022-09-17T13:23:49.446Z,13.70
2022-09-17T13:28:52.625Z,13.60
2022-09-17T13:34:02.037Z,13.50
2022-09-17T13:39:05.822Z,13.50
2022-09-17T13:44:09.364Z,13.50
2022-09-17T13:49:19.538Z,13.50
2022-09-17T13:54:22.591Z,13.40
2022-09-17T13:59:27.750Z,13.50
2022-09-17T14:04:32.588Z,13.50
2022-09-17T14:09:46.277Z,13.50
2022-09-17T14:14:51.152Z,13.50
2022-09-17T14:19:55.523Z,13.50
2022-09-17T14:24:58.418Z,13.50
2022-09-17T14:30:23.177Z,13.40
2022-09-17T14:35:47.402Z,13.40
2022-09-17T14:41:09.088Z,13.40
2022-09-17T14:46:21.922Z,13.40
2022-09-17T14:51:26.326Z,13.40
2022-09-17T14:56:28.356Z,13.40
2022-09-17T15:01:31.336Z,13.40
2022-09-17T15:06:33.389Z,13.40
2022-09-17T15:11:36.888Z,13.40
2022-09-17T15:16:47.496Z,13.40
2022-09-17T15:21:50.177Z,13.40
2022-09-17T15:26:53.689Z,13.30
2022-09-17T15:31:55.617Z,13.30
2022-09-17T15:37:23.797Z,13.30
2022-09-17T15:42:30.599Z,13.20
2022-09-17T15:47:38.941Z,13.20
2022-09-17T15:52:40.879Z,13.20
2022-09-17T15:57:44.406Z,13.20
2022-09-17T16:02:46.370Z,13.20
2022-09-17T16:07:48.604Z,13.20
2022-09-17T16:12:50.414Z,13.10
2022-09-17T16:17:53.001Z,13.10
2022-09-17T16:22:55.833Z,12.90
2022-09-17T16:27:59.465Z,12.90
2022-09-17T16:33:04.074Z,12.90
2022-09-17T16:38:06.402Z,12.90
2022-09-17T16:43:08.844Z,12.80
2022-09-17T16:48:10.821Z,12.70
2022-09-17T16:53:12.949Z,12.70
2022-09-17T16:58:14.934Z,12.60
2022-09-17T17:03:16.915Z,12.50
2022-09-17T17:08:19.116Z,12.40
2022-09-17T17:13:21.053Z,12.40
2022-09-17T17:18:23.040Z,12.30
2022-09-17T17:23:24.968Z,12.20
2022-09-17T17:28:27.093Z,12.10
2022-09-17T17:33:29.061Z,12.10
2022-09-17T17:38:30.913Z,12.00
2022-09-17T17:43:35.217Z,12.00
2022-09-17T17:48:37.371Z,12.00
2022-09-17T17:53:42.145Z,11.90
2022-09-17T17:58:44.138Z,11.90
2022-09-17T18:03:46.408Z,11.80
2022-09-17T18:08:48.215Z,11.60
2022-09-17T18:13:56.986Z,11.60
2022-09-17T18:18:58.882Z,11.50
2022-09-17T18:24:00.756Z,11.50
2022-09-17T18:29:07.563Z,11.50
2022-09-17T18:34:12.318Z,11.40
2022-09-17T18:44:37.358Z,11.50
2022-09-17T18:49:39.145Z,11.50
2022-09-17T18:54:40.963Z,11.50
2022-09-17T18:59:43.832Z,11.50
2022-09-17T19:04:52.978Z,11.40
2022-09-17T19:09:54.801Z,11.40
2022-09-17T19:14:56.602Z,11.30
2022-09-17T19:19:58.385Z,11.30
2022-09-17T19:25:00.174Z,11.30
2022-09-17T19:30:02.319Z,11.20
2022-09-17T19:35:05.260Z,11.20
2022-09-17T19:40:08.687Z,11.10
2022-09-17T19:45:10.869Z,11.10
2022-09-17T19:50:12.827Z,11.00
2022-09-17T19:55:14.699Z,11.00
2022-09-17T20:00:16.680Z,10.90
2022-09-17T20:05:18.509Z,10.90
2022-09-17T20:10:20.319Z,10.90
2022-09-17T20:15:22.505Z,10.80
2022-09-17T20:20:28.345Z,10.80
2022-09-17T20:25:30.180Z,10.70
2022-09-17T20:30:34.127Z,10.70
2022-09-17T20:35:36.430Z,10.70
2022-09-17T20:40:38.527Z,10.70
2022-09-17T20:45:55.660Z,10.60
2022-09-17T20:50:58.872Z,10.60
2022-09-17T20:56:03.393Z,10.60
2022-09-17T21:01:13.601Z,10.60
2022-09-17T21:06:26.712Z,10.60
2022-09-17T21:11:29.938Z,10.60
2022-09-17T21:16:31.946Z,10.60
2022-09-17T21:21:34.541Z,10.50
2022-09-17T21:26:36.865Z,10.40
2022-09-17T21:31:39.037Z,10.40
2022-09-17T21:36:43.331Z,10.40
2022-09-17T21:41:46.037Z,10.40
2022-09-17T21:46:49.652Z,10.40
2022-09-17T21:51:51.770Z,10.30
2022-09-17T21:56:53.652Z,10.20
2022-09-17T22:01:57.582Z,10.20
2022-09-17T22:07:00.383Z,10.20
2022-09-17T22:12:02.840Z,10.10
2022-09-17T22:17:04.665Z,10.10
2022-09-17T22:22:06.544Z,10.10
2022-09-17T22:27:08.361Z,10.10
2022-09-17T22:32:10.196Z,10.00
2022-09-17T22:37:12.012Z,10.00
2022-09-17T22:42:13.995Z,9.90
2022-09-17T22:47:15.832Z,9.90
2022-09-17T22:52:17.705Z,9.80
2022-09-17T22:57:19.509Z,9.80
2022-09-17T23:02:21.413Z,9.80
2022-09-17T23:07:23.478Z,9.80
2022-09-17T23:12:25.288Z,9.80
2022-09-17T23:17:29.430Z,9.70
2022-09-17T23:22:31.419Z,9.70
2022-09-17T23:27:33.265Z,9.70
2022-09-17T23:32:35.319Z,9.60
2022-09-17T23:37:37.248Z,9.60
2022-09-17T23:42:39.226Z,9.50
2022-09-17T23:47:41.093Z,9.50
2022-09-17T23:52:43.262Z,9.40
2022-09-17T23:57:45.109Z,9.30
